Time;durP1;ratioP1;P1;durP2;ratioP2;P2;SDS_P1;SDS_P2;PMS_P1;PMS_P2;Temp;Humidity;BMP_temperature;BMP_pressure;BME280_temperature;BME280_humidity;BME280_pressure;Samples;Min_cycle;Max_cycle;Signal;HPM_P1;HPM_P2
2022/08/22 00:02:46;;;;;;;7.93;2.50;;;;;;;19.64;48.10;99606.63;12199624;19;20031;-80
2022/08/22 00:07:34;;;;;;;5.00;2.20;;;;;;;19.63;47.94;99602.16;12219928;19;20028;-82
2022/08/22 00:11:56;;;;;;;6.07;2.35;;;;;;;19.61;48.31;99598.88;12199268;19;20070;-79
2022/08/22 00:16:19;;;;;;;5.00;2.55;;;;;;;19.57;48.50;99604.25;12218869;19;20463;-81
2022/08/22 00:20:34;;;;;;;6.85;2.60;;;;;;;19.52;48.06;99607.19;12198685;19;20010;-82
2022/08/22 00:25:11;;;;;;;4.22;2.40;;;;;;;19.44;49.00;99608.75;12228066;19;20079;-80
2022/08/22 00:29:38;;;;;;;6.38;2.53;;;;;;;19.40;48.90;99593.75;12208952;19;20046;-82
2022/08/22 00:33:45;;;;;;;6.60;2.83;;;;;;;19.33;49.40;99591.41;12228986;19;20014;-83
2022/08/22 00:38:01;;;;;;;6.63;3.03;;;;;;;19.26;50.06;99592.94;12221202;19;20115;-83
2022/08/22 00:42:24;;;;;;;7.60;3.03;;;;;;;19.16;50.61;99588.41;12233827;19;20023;-82
2022/08/22 00:46:32;;;;;;;8.60;3.47;;;;;;;19.07;50.66;99591.13;12234698;19;19999;-81
2022/08/22 00:50:52;;;;;;;8.57;3.20;;;;;;;19.04;51.58;99588.13;12209641;19;20409;-82
2022/08/22 00:55:11;;;;;;;6.32;3.58;;;;;;;19.00;51.79;99590.69;12232109;19;20010;-81
2022/08/22 00:59:32;;;;;;;10.20;3.35;;;;;;;18.95;52.24;99599.19;12208924;19;20006;-82
2022/08/22 01:03:43;;;;;;;4.50;3.13;;;;;;;18.89;52.02;99603.22;12231300;19;20010;-80
2022/08/22 01:08:19;;;;;;;5.13;2.67;;;;;;;18.74;52.51;99595.13;12217956;19;20357;-80
2022/08/22 01:13:29;;;;;;;7.47;2.70;;;;;;;18.58;53.09;99595.41;12240010;19;20048;-80
2022/08/22 01:18:33;;;;;;;7.93;3.60;;;;;;;18.43;53.25;99592.91;12217565;19;20013;-80
2022/08/22 01:23:12;;;;;;;9.07;3.97;;;;;;;18.29;54.78;99583.69;12216684;19;20006;-80
2022/08/22 01:28:31;;;;;;;10.68;4.10;;;;;;;18.25;55.19;99577.06;12236978;19;20011;-80
2022/08/22 01:33:16;;;;;;;10.20;4.18;;;;;;;18.27;54.95;99577.59;12214599;19;20074;-81
2022/08/22 01:38:29;;;;;;;6.50;3.75;;;;;;;18.34;55.26;99569.66;12225519;19;20006;-80
2022/08/22 01:43:00;;;;;;;8.55;3.83;;;;;;;18.40;55.16;99572.03;12239059;19;20046;-80
2022/08/22 01:47:20;;;;;;;7.43;3.75;;;;;;;18.51;54.84;99563.47;12191715;19;20019;-80
2022/08/22 01:51:48;;;;;;;7.40;3.72;;;;;;;18.70;54.74;99560.59;12256472;19;20015;-82
2022/08/22 01:56:10;;;;;;;7.88;3.80;;;;;;;18.82;53.88;99556.16;12205111;19;20006;-82
2022/08/22 02:00:18;;;;;;;6.95;3.70;;;;;;;18.90;54.33;99568.56;12228649;19;20023;-81
2022/08/22 02:04:40;;;;;;;6.00;3.53;;;;;;;18.93;54.13;99567.97;12204078;19;20011;-81
2022/08/22 02:08:58;;;;;;;5.80;3.58;;;;;;;18.95;54.38;99574.06;12228944;19;20018;-81
2022/08/22 02:13:11;;;;;;;7.35;3.67;;;;;;;18.94;54.32;99571.56;12224587;19;20002;-82
2022/08/22 02:17:32;;;;;;;6.82;3.80;;;;;;;18.86;54.58;99568.38;12206647;19;20007;-82
2022/08/22 02:21:52;;;;;;;7.25;3.95;;;;;;;18.84;54.49;99572.63;12236970;19;20007;-81
2022/08/22 02:26:06;;;;;;;8.35;3.95;;;;;;;18.86;54.59;99564.78;12209602;19;20349;-81
2022/08/22 02:30:13;;;;;;;7.93;4.30;;;;;;;18.85;54.71;99571.47;12230333;19;20002;-81
2022/08/22 02:34:28;;;;;;;9.10;4.00;;;;;;;18.80;54.83;99565.97;12224373;19;20014;-81
2022/08/22 02:39:11;;;;;;;;;;;;;;;18.76;55.02;99567.75;12206833;19;20015;-81
2022/08/22 02:44:07;;;;;;;;;;;;;;;;;;;;;
2022/08/22 02:48:53;;;;;;;7.18;3.42;;;;;;;18.73;54.82;99563.59;12121301;19;2004733;-81
2022/08/22 02:53:35;;;;;;;5.63;3.40;;;;;;;18.77;54.66;99566.59;12204922;19;20010;-82
2022/08/22 02:57:46;;;;;;;6.20;3.20;;;;;;;18.79;54.45;99561.53;12226388;19;20021;-81
2022/08/22 03:01:52;;;;;;;7.82;3.65;;;;;;;18.82;54.08;99560.91;12201361;19;20082;-81
2022/08/22 03:06:38;;;;;;;5.32;3.20;;;;;;;18.82;54.65;99556.16;12222199;19;20482;-82
2022/08/22 03:11:10;;;;;;;7.15;3.47;;;;;;;18.81;54.11;99550.91;12202376;19;20007;-81
2022/08/22 03:15:47;;;;;;;8.87;3.97;;;;;;;18.71;54.67;99554.72;12222797;19;20006;-81
2022/08/22 03:19:55;;;;;;;7.65;3.50;;;;;;;18.59;55.13;99552.44;12201154;19;20006;-81
2022/08/22 03:24:33;;;;;;;9.63;4.28;;;;;;;18.41;55.73;99551.38;12222137;19;20014;-81
2022/08/22 03:56:15;;;;;;;8.48;4.30;;;;;;;17.28;59.31;99577.47;12188304;19;20006;-81
2022/08/22 04:01:00;;;;;;;7.38;3.72;;;;;;;17.16;60.49;99576.25;12212076;19;20031;-81
2022/08/22 04:11:07;;;;;;;;;;;;;;;;;;;;;
2022/08/22 04:16:27;;;;;;;5.47;3.67;;;;;;;16.78;62.69;99581.75;12212256;19;20104;-83
2022/08/22 04:37:47;;;;;;;;;;;;;;;;;;;;;
2022/08/22 04:47:37;;;;;;;;;;;;;;;;;;;;;
2022/08/22 05:09:19;;;;;;;;;;;;;;;;;;;;;
2022/08/22 05:14:02;;;;;;;;;;;;;;;;;;;;;
2022/08/22 05:19:07;;;;;;;;;;;;;;;;;;;;;
2022/08/22 05:28:47;;;;;;;7.20;4.40;;;;;;;16.37;67.06;99616.34;12255189;19;20018;-83
2022/08/22 05:38:21;;;;;;;7.93;4.05;;;;;;;16.41;67.42;99606.28;12210499;19;20034;-82
2022/08/22 05:43:56;;;;;;;7.07;4.30;;;;;;;16.49;66.99;99607.63;12225452;19;20003;-82
2022/08/22 06:57:36;;;;;;;7.15;4.40;;;;;;;19.33;63.18;99632.44;12229866;19;20077;-82
2022/08/22 07:02:40;;;;;;;;;;;;;;;;;;;;;
2022/08/22 07:12:46;;;;;;;;;;;;;;;;;;;;;
2022/08/22 07:18:42;;;;;;;9.52;4.82;;;;;;;21.08;59.06;99647.44;12223486;19;20014;-83
2022/08/22 07:23:33;;;;;;;;;;;;;;;;;;;;;
2022/08/22 07:28:58;;;;;;;6.30;4.03;;;;;;;21.78;57.32;99654.06;11978599;19;2004740;-82
2022/08/22 07:33:56;;;;;;;8.13;4.20;;;;;;;22.28;56.61;99650.78;12225286;19;20014;-81
2022/08/22 07:38:19;;;;;;;7.85;4.13;;;;;;;22.61;55.54;99655.84;12208536;19;20043;-82
2022/08/22 07:42:40;;;;;;;9.23;4.57;;;;;;;22.90;53.44;99659.88;12229906;19;20034;-81
2022/08/22 07:47:38;;;;;;;8.18;4.38;;;;;;;23.02;53.88;99668.47;12226950;19;20074;-81
2022/08/22 07:51:58;;;;;;;6.32;4.05;;;;;;;23.16;53.56;99662.63;12226343;19;20020;-81
2022/08/22 07:57:05;;;;;;;10.75;4.32;;;;;;;23.33;52.63;99665.34;12210725;19;20415;-81
2022/08/22 08:01:19;;;;;;;9.20;4.45;;;;;;;23.52;51.87;99667.72;12233625;19;20073;-81
2022/08/22 08:05:40;;;;;;;9.75;4.55;;;;;;;23.64;51.37;99656.56;12212597;19;20041;-81
2022/08/22 08:09:48;;;;;;;8.52;4.68;;;;;;;23.84;51.67;99659.78;12238944;19;20082;-82
2022/08/22 08:14:03;;;;;;;9.90;4.88;;;;;;;24.21;49.51;99655.16;12211226;19;20469;-81
2022/08/22 08:18:18;;;;;;;5.38;4.05;;;;;;;24.45;49.47;99656.44;12234434;19;20100;-81
2022/08/22 08:22:25;;;;;;;9.05;4.43;;;;;;;24.75;48.68;99659.97;12234429;19;20034;-81
2022/08/22 08:26:37;;;;;;;7.90;4.55;;;;;;;24.96;48.19;99649.44;12213966;19;20032;-81
2022/08/22 08:30:46;;;;;;;8.65;4.57;;;;;;;25.02;47.97;99659.31;12236320;19;20014;-81
2022/08/22 08:34:50;;;;;;;6.65;3.90;;;;;;;25.11;47.09;99662.00;12204489;19;20013;-82
2022/08/22 08:39:13;;;;;;;8.02;4.40;;;;;;;25.34;46.63;99659.56;12230377;19;20083;-81
2022/08/22 08:43:46;;;;;;;6.43;4.70;;;;;;;25.54;45.87;99656.97;12235379;19;20003;-81
2022/08/22 08:47:49;;;;;;;6.95;3.95;;;;;;;26.11;45.15;99653.94;12220675;19;20018;-81
2022/08/22 08:52:24;;;;;;;11.73;3.90;;;;;;;26.40;43.90;99651.94;12238395;19;20360;-81
2022/08/22 08:57:00;;;;;;;4.82;3.90;;;;;;;26.89;43.10;99653.69;12217955;19;20095;-81
2022/08/22 09:01:28;;;;;;;11.90;4.22;;;;;;;27.35;42.29;99645.63;12245192;19;20006;-81
2022/08/22 09:05:42;;;;;;;5.45;3.70;;;;;;;27.77;41.42;99642.97;12234744;19;20035;-81
2022/08/22 09:10:23;;;;;;;7.80;4.40;;;;;;;28.14;39.72;99634.94;12283176;19;20002;-82
2022/08/22 09:15:09;;;;;;;6.50;3.97;;;;;;;28.45;38.44;99644.47;12248967;19;20078;-83
2022/08/22 09:19:55;;;;;;;6.60;3.58;;;;;;;28.59;38.48;99643.97;12234158;19;20003;-83
2022/08/22 09:24:21;;;;;;;7.57;3.77;;;;;;;28.83;37.85;99637.09;12209658;19;20017;-85
2022/08/22 09:28:37;;;;;;;5.35;3.70;;;;;;;29.00;36.11;99642.28;12230906;19;20006;-84
2022/08/22 09:32:44;;;;;;;6.20;3.45;;;;;;;29.24;36.67;99640.25;12209833;19;20016;-83
2022/08/22 09:37:15;;;;;;;7.60;3.70;;;;;;;29.49;34.64;99635.81;12228394;19;20014;-81
2022/08/22 09:41:32;;;;;;;7.18;3.83;;;;;;;29.69;35.04;99638.59;12214662;19;20038;-84
2022/08/22 09:45:48;;;;;;;7.70;3.47;;;;;;;29.78;34.19;99630.59;12232608;19;20342;-84
2022/08/22 09:49:57;;;;;;;5.38;3.65;;;;;;;29.79;32.16;99615.19;12206371;19;20081;-84
2022/08/22 09:54:14;;;;;;;5.15;3.53;;;;;;;30.01;33.30;99612.63;12228580;19;20011;-83
2022/08/22 09:58:34;;;;;;;6.20;4.63;;;;;;;30.12;33.00;99613.59;12230484;19;20064;-83
2022/08/22 10:02:53;;;;;;;5.68;3.45;;;;;;;30.22;31.86;99612.09;12208898;19;20010;-83
2022/08/22 10:07:13;;;;;;;4.72;2.83;;;;;;;30.54;31.70;99606.78;12231904;19;20123;-85
2022/08/22 10:11:26;;;;;;;6.03;2.97;;;;;;;30.75;29.33;99597.66;12204759;19;20019;-83
2022/08/22 10:15:44;;;;;;;4.60;3.15;;;;;;;30.98;29.68;99595.47;12227261;19;20024;-84
2022/08/22 10:19:52;;;;;;;7.43;2.88;;;;;;;30.92;29.23;99585.66;12209603;19;20007;-84
2022/08/22 10:24:38;;;;;;;4.68;2.80;;;;;;;30.88;28.97;99582.78;12232524;19;20022;-83
2022/08/22 10:28:52;;;;;;;6.50;2.65;;;;;;;31.06;28.42;99593.50;12211783;19;20015;-81
2022/08/22 10:33:03;;;;;;;4.45;2.83;;;;;;;30.30;28.22;99588.25;12231493;19;20013;-82
2022/08/22 10:37:18;;;;;;;4.30;2.83;;;;;;;30.42;29.23;99582.28;12231223;19;20023;-81
2022/08/22 10:41:34;;;;;;;6.28;2.58;;;;;;;30.15;28.19;99575.88;12213355;19;20003;-81
2022/08/22 10:45:38;;;;;;;;;;;;;;;30.38;29.01;99572.94;12232114;19;20364;-81
2022/08/22 10:49:49;;;;;;;4.85;3.00;;;;;;;30.98;27.38;99580.44;12211007;19;19936;-81
2022/08/22 10:53:54;;;;;;;5.30;3.13;;;;;;;30.95;27.21;99572.69;12229303;19;20416;-81
2022/08/22 10:58:08;;;;;;;11.30;3.00;;;;;;;31.18;27.96;99578.97;12229743;19;20014;-83
2022/08/22 11:02:38;;;;;;;9.98;3.10;;;;;;;31.24;27.84;99570.88;12211030;19;20177;-81
2022/08/22 11:07:21;;;;;;;6.35;2.92;;;;;;;31.50;27.51;99562.16;12234346;19;20014;-83
2022/08/22 11:11:34;;;;;;;4.18;2.65;;;;;;;31.53;26.51;99563.34;12212076;19;20013;-82
2022/08/22 11:16:05;;;;;;;5.03;3.05;;;;;;;32.01;26.79;99554.69;12232702;19;20011;-84
2022/08/22 11:20:18;;;;;;;4.70;2.63;;;;;;;32.25;26.60;99560.88;12208964;19;20010;-83
2022/08/22 11:24:40;;;;;;;6.70;2.63;;;;;;;32.51;26.47;99560.53;12231614;19;20010;-83
2022/08/22 11:29:17;;;;;;;5.50;2.60;;;;;;;32.57;26.16;99546.69;12207261;19;20034;-83
2022/08/22 11:33:59;;;;;;;6.07;2.83;;;;;;;32.98;25.31;99550.00;12229478;19;20011;-82
2022/08/22 11:38:12;;;;;;;5.70;2.63;;;;;;;32.75;25.66;99546.72;12204457;19;20365;-83
2022/08/22 11:42:23;;;;;;;4.95;2.80;;;;;;;32.80;24.53;99552.03;12231416;19;20006;-86
2022/08/22 11:46:34;;;;;;;5.30;2.40;;;;;;;33.02;24.40;99552.84;12228383;19;20090;-84
2022/08/22 11:50:47;;;;;;;5.47;2.75;;;;;;;32.74;24.49;99536.53;12210264;19;20014;-84
2022/08/22 11:54:52;;;;;;;3.63;2.30;;;;;;;32.57;24.68;99533.28;12226316;19;20003;-83
2022/08/22 11:59:03;;;;;;;7.72;2.85;;;;;;;33.58;24.46;99536.88;12201614;19;20032;-84
2022/08/22 12:03:08;;;;;;;;;;;;;;;34.57;22.92;99528.28;12225611;19;20007;-82
2022/08/22 12:07:19;;;;;;;5.28;3.15;;;;;;;35.41;22.35;99525.09;12221105;19;19911;-82
2022/08/22 12:11:43;;;;;;;4.40;2.80;;;;;;;35.92;22.05;99520.41;12202381;19;20014;-82
2022/08/22 12:16:04;;;;;;;5.05;3.30;;;;;;;36.38;21.26;99515.28;12222032;19;20070;-83
2022/08/22 12:20:36;;;;;;;4.15;2.80;;;;;;;36.56;21.05;99517.91;12215150;19;20014;-83
2022/08/22 12:25:06;;;;;;;7.25;2.50;;;;;;;36.98;20.20;99504.91;12242994;19;20038;-82
2022/08/22 12:29:38;;;;;;;3.60;3.00;;;;;;;37.37;19.15;99514.88;12214495;19;20486;-83
2022/08/22 12:33:55;;;;;;;4.57;2.75;;;;;;;36.90;19.12;99504.22;12233993;19;20015;-82
2022/08/22 12:37:59;;;;;;;;;;;;;;;35.68;20.33;99495.75;12217466;19;20011;-84
2022/08/22 12:42:35;;;;;;;8.38;3.53;;;;;;;34.43;21.36;99501.38;12232902;19;19917;-83
2022/08/22 12:47:01;;;;;;;6.57;3.00;;;;;;;35.45;20.84;99496.41;12212092;19;20007;-85
2022/08/22 12:51:31;;;;;;;4.03;2.70;;;;;;;34.84;21.13;99492.09;12236204;19;20047;-85
2022/08/22 12:55:58;;;;;;;6.53;2.85;;;;;;;33.49;21.82;99488.72;12270698;19;20027;-85
2022/08/22 13:00:30;;;;;;;6.18;2.80;;;;;;;32.55;22.64;99478.66;12220779;19;20011;-84
2022/08/22 13:04:33;;;;;;;3.70;2.63;;;;;;;31.88;23.62;99479.28;12238730;19;20023;-82
2022/08/22 13:08:40;;;;;;;4.75;2.60;;;;;;;31.86;23.55;99484.56;12219385;19;20516;-84
2022/08/22 13:12:50;;;;;;;3.88;2.60;;;;;;;33.35;23.14;99471.66;12238523;19;20018;-84
2022/08/22 13:16:59;;;;;;;5.65;2.22;;;;;;;35.53;20.76;99457.84;12218104;19;20321;-83
2022/08/22 13:21:20;;;;;;;4.47;2.40;;;;;;;36.84;19.97;99467.84;12235212;19;20011;-84
2022/08/22 13:25:25;;;;;;;5.20;2.90;;;;;;;35.97;19.49;99461.78;12236350;19;20015;-82
2022/08/22 13:29:50;;;;;;;4.68;2.80;;;;;;;35.73;20.10;99467.44;12227960;19;20013;-85
2022/08/22 13:33:59;;;;;;;10.32;3.63;;;;;;;37.08;19.20;99463.72;12252388;19;20006;-84
2022/08/22 13:38:18;;;;;;;4.95;2.60;;;;;;;38.81;17.72;99463.63;12210508;19;20006;-84
2022/08/22 13:42:30;;;;;;;3.95;2.38;;;;;;;39.08;17.44;99454.69;12238877;19;20028;-83
2022/08/22 13:46:35;;;;;;;4.60;2.42;;;;;;;39.55;17.53;99454.22;12239512;19;20015;-81
2022/08/22 13:51:08;;;;;;;4.85;2.72;;;;;;;41.01;16.25;99451.63;12211107;19;20003;-82
2022/08/22 13:55:18;;;;;;;5.78;2.50;;;;;;;41.63;15.54;99465.50;12232978;19;20018;-85
2022/08/22 13:59:42;;;;;;;3.70;2.30;;;;;;;41.57;15.60;99453.75;12213734;19;20015;-85
2022/08/22 14:04:15;;;;;;;3.08;2.05;;;;;;;41.39;15.50;99450.69;12240559;19;20383;-83
2022/08/22 14:08:40;;;;;;;5.63;2.63;;;;;;;40.16;16.19;99440.84;12216045;19;20014;-84
2022/08/22 14:12:55;;;;;;;5.27;2.20;;;;;;;38.33;17.45;99447.97;12234500;19;20007;-82
2022/08/22 14:16:59;;;;;;;6.13;2.55;;;;;;;36.43;18.65;99445.94;12211579;19;20027;-81
2022/08/22 14:21:28;;;;;;;5.80;2.83;;;;;;;35.22;19.46;99434.03;12232868;19;20067;-82
2022/08/22 14:25:42;;;;;;;4.80;2.58;;;;;;;34.39;20.12;99436.84;12220033;19;20007;-83
2022/08/22 14:29:51;;;;;;;3.53;2.47;;;;;;;33.68;20.96;99438.09;12232662;19;20353;-82
2022/08/22 14:34:01;;;;;;;4.63;2.45;;;;;;;33.57;21.13;99432.44;12235834;19;20452;-81
2022/08/22 14:38:18;;;;;;;5.05;2.30;;;;;;;33.00;21.63;99436.25;12213079;19;20490;-82
2022/08/22 14:42:24;;;;;;;4.55;2.40;;;;;;;32.63;21.70;99426.09;12233654;19;19999;-82
2022/08/22 14:46:42;;;;;;;3.13;2.28;;;;;;;32.48;21.44;99421.59;12232712;19;20363;-81
2022/08/22 14:50:54;;;;;;;3.72;2.47;;;;;;;32.17;22.26;99418.31;12203218;19;20015;-83
2022/08/22 14:55:25;;;;;;;5.72;2.55;;;;;;;31.67;22.26;99412.50;12230055;19;20007;-81
2022/08/22 14:59:42;;;;;;;4.28;2.45;;;;;;;31.31;23.33;99409.47;12211834;19;20040;-85
2022/08/22 15:03:52;;;;;;;3.63;2.53;;;;;;;31.02;23.53;99408.50;12231124;19;20093;-82
2022/08/22 15:07:58;;;;;;;5.30;2.00;;;;;;;30.72;23.51;99413.59;12210548;19;20000;-81
2022/08/22 15:12:02;;;;;;;6.38;2.65;;;;;;;30.49;23.68;99408.97;12231037;19;20030;-83
2022/08/22 15:16:16;;;;;;;5.10;2.25;;;;;;;30.42;24.18;99415.38;12225740;19;20128;-82
2022/08/22 15:20:31;;;;;;;4.63;2.00;;;;;;;30.41;24.35;99410.94;12202382;19;20024;-82
2022/08/22 15:24:59;;;;;;;3.92;2.13;;;;;;;30.36;24.16;99410.47;12223627;19;20399;-83
2022/08/22 15:29:24;;;;;;;5.68;1.98;;;;;;;30.28;24.49;99403.94;12202044;19;20017;-81
2022/08/22 15:33:32;;;;;;;3.20;2.03;;;;;;;30.15;24.55;99399.69;12224573;19;20010;-82
2022/08/22 15:37:56;;;;;;;3.92;2.20;;;;;;;30.08;24.84;99405.34;12219298;19;20014;-82
2022/08/22 15:42:00;;;;;;;5.03;2.40;;;;;;;30.24;24.44;99399.41;12226426;19;20011;-82
2022/08/22 15:46:16;;;;;;;4.68;2.17;;;;;;;30.41;24.13;99391.03;12223636;19;20011;-82
2022/08/22 15:51:03;;;;;;;6.00;2.38;;;;;;;30.68;24.06;99393.66;12202735;19;20007;-83
2022/08/22 15:55:23;;;;;;;7.22;2.70;;;;;;;30.84;24.01;99385.66;12219030;19;20010;-83
2022/08/22 15:59:32;;;;;;;3.45;2.20;;;;;;;30.84;24.37;99374.28;12200522;19;20459;-82
2022/08/22 16:04:01;;;;;;;3.28;2.15;;;;;;;31.04;24.39;99393.91;12223762;19;20007;-82
2022/08/22 16:08:07;;;;;;;3.55;2.08;;;;;;;31.30;23.55;99390.78;12199531;19;20018;-82
2022/08/22 16:12:30;;;;;;;3.15;2.22;;;;;;;31.21;23.79;99383.84;12222195;19;20010;-82
2022/08/22 16:16:44;;;;;;;2.83;2.20;;;;;;;31.32;23.61;99382.66;12223152;19;20011;-82
2022/08/22 16:20:51;;;;;;;3.35;2.08;;;;;;;31.92;22.97;99386.94;12200613;19;20558;-82
2022/08/22 16:24:56;;;;;;;6.43;2.53;;;;;;;31.80;23.21;99378.75;12221457;19;20085;-82
2022/08/22 16:28:58;;;;;;;3.78;2.13;;;;;;;31.50;23.44;99379.06;12199606;19;20109;-82
2022/08/22 16:33:00;;;;;;;4.18;2.30;;;;;;;31.25;23.70;99379.78;12257592;19;20037;-81
2022/08/22 16:37:02;;;;;;;4.30;2.47;;;;;;;31.15;23.79;99379.75;12272726;19;20006;-81
2022/08/22 16:41:04;;;;;;;3.35;2.20;;;;;;;31.02;23.98;99379.25;12222679;19;20011;-83
2022/08/22 16:45:14;;;;;;;;;;;;;;;30.86;24.02;99368.22;12229869;19;20033;-82
2022/08/22 16:49:29;;;;;;;4.95;2.00;;;;;;;30.75;24.21;99368.09;12219710;19;20321;-82
2022/08/22 16:53:34;;;;;;;4.65;2.38;;;;;;;30.47;24.16;99368.75;12199772;19;20014;-82
2022/08/22 16:57:57;;;;;;;4.93;2.15;;;;;;;30.29;24.78;99370.63;12229233;19;20014;-83
2022/08/22 17:02:22;;;;;;;4.88;2.20;;;;;;;30.20;24.30;99374.63;12199384;19;20003;-82
2022/08/22 17:06:44;;;;;;;5.30;2.13;;;;;;;30.11;24.69;99384.66;12230715;19;20006;-82
2022/08/22 17:11:06;;;;;;;5.25;2.33;;;;;;;29.96;25.25;99387.38;12219370;19;20014;-82
2022/08/22 17:15:47;;;;;;;5.72;2.47;;;;;;;30.06;25.33;99388.66;12237329;19;20015;-81
2022/08/22 17:20:15;;;;;;;3.33;2.40;;;;;;;30.01;24.79;99388.19;12220101;19;20014;-81
2022/08/22 17:24:43;;;;;;;6.20;2.40;;;;;;;29.96;24.94;99389.38;12240439;19;19998;-81
2022/08/22 17:29:14;;;;;;;4.47;2.60;;;;;;;29.73;25.52;99400.91;12217771;19;20007;-81
2022/08/22 17:33:22;;;;;;;6.25;2.80;;;;;;;29.39;25.60;99392.41;12234227;19;20032;-81
2022/08/22 17:38:01;;;;;;;6.30;2.72;;;;;;;29.05;26.13;99406.53;12237547;19;20007;-81
2022/08/22 17:42:27;;;;;;;5.13;2.38;;;;;;;28.80;26.50;99409.00;12215620;19;20048;-81
2022/08/22 17:46:39;;;;;;;4.85;2.97;;;;;;;28.51;27.15;99395.59;12235976;19;20006;-82
2022/08/22 17:50:53;;;;;;;;;;;;;;;28.14;27.53;99402.66;12210646;19;20010;-82
2022/08/22 17:54:58;;;;;;;3.72;2.35;;;;;;;27.76;28.14;99414.06;12233596;19;19918;-81
2022/08/22 17:59:22;;;;;;;6.93;3.08;;;;;;;27.38;29.12;99407.22;12212734;19;20010;-82
2022/08/22 18:03:34;;;;;;;31.33;18.23;;;;;;;27.11;29.41;99407.03;12234238;19;20348;-81
2022/08/22 18:08:00;;;;;;;8.83;4.30;;;;;;;26.74;30.22;99403.78;12232687;19;20332;-81
2022/08/22 18:12:16;;;;;;;5.28;2.10;;;;;;;26.37;30.56;99407.72;12236750;19;21036;-81
2022/08/22 18:16:42;;;;;;;4.22;1.98;;;;;;;26.07;31.11;99407.38;12280674;19;20010;-81
2022/08/22 18:21:06;;;;;;;2.85;2.20;;;;;;;25.76;31.96;99416.63;12260054;19;20046;-81
2022/08/22 18:25:31;;;;;;;10.20;2.13;;;;;;;25.51;32.25;99420.72;12281397;19;20026;-81
2022/08/22 18:30:09;;;;;;;3.72;2.00;;;;;;;25.21;33.25;99416.25;12220577;19;20070;-82
2022/08/22 18:34:41;;;;;;;4.75;1.88;;;;;;;24.96;33.26;99418.31;12231446;19;20352;-82
2022/08/22 18:39:04;;;;;;;;;;;;;;;24.73;33.25;99422.81;12213568;19;20018;-82
2022/08/22 18:43:16;;;;;;;;;;;;;;;24.53;33.42;99422.56;12240850;19;19906;-81
2022/08/22 18:47:26;;;;;;;5.43;1.85;;;;;;;24.35;34.04;99426.78;12213589;19;19924;-81
2022/08/22 18:51:37;;;;;;;3.88;1.90;;;;;;;24.15;34.13;99434.13;12233452;19;20002;-81
2022/08/22 18:55:53;;;;;;;6.55;2.42;;;;;;;23.99;34.52;99438.81;12212193;19;20011;-81
2022/08/22 19:00:01;;;;;;;8.27;2.15;;;;;;;23.88;34.86;99442.09;12233774;19;20018;-81
2022/08/22 19:04:39;;;;;;;7.53;3.80;;;;;;;23.75;35.22;99439.59;12236267;19;20003;-81
2022/08/22 19:09:06;;;;;;;6.75;2.50;;;;;;;23.64;35.41;99447.59;12214012;19;20014;-81
2022/08/22 19:13:45;;;;;;;4.30;2.17;;;;;;;23.53;35.90;99452.00;12232811;19;20005;-81
2022/08/22 19:18:05;;;;;;;4.53;2.38;;;;;;;23.43;35.35;99450.44;12208431;19;20355;-81
2022/08/22 19:22:19;;;;;;;9.30;2.53;;;;;;;23.34;35.78;99456.13;12233085;19;20014;-81
2022/08/22 19:26:30;;;;;;;6.47;2.00;;;;;;;23.26;36.08;99457.06;12196062;19;20007;-81
2022/08/22 19:31:15;;;;;;;;;;;;;;;23.17;35.93;99457.13;12246589;19;20501;-81
2022/08/22 19:35:40;;;;;;;7.18;1.98;;;;;;;23.06;36.36;99458.69;12218277;19;19911;-82
2022/08/22 19:39:42;;;;;;;4.10;2.20;;;;;;;23.00;36.74;99465.66;12229764;19;20007;-81
2022/08/22 19:43:45;;;;;;;6.38;2.40;;;;;;;22.94;36.74;99462.25;12207233;19;20657;-81
2022/08/22 19:48:05;;;;;;;8.77;2.30;;;;;;;22.88;37.00;99465.56;12231214;19;20062;-81
2022/08/22 19:52:28;;;;;;;6.00;2.22;;;;;;;22.84;37.20;99458.97;12227964;19;19998;-81
2022/08/22 19:56:39;;;;;;;4.15;2.47;;;;;;;22.79;37.13;99471.22;12212141;19;20010;-82
2022/08/22 20:01:08;;;;;;;4.18;1.90;;;;;;;22.73;37.38;99467.78;12239801;19;20015;-81
2022/08/22 20:05:32;;;;;;;2.38;1.63;;;;;;;22.71;37.35;99461.69;12209412;19;20026;-81
2022/08/22 20:09:55;;;;;;;5.28;2.10;;;;;;;22.72;37.32;99474.56;12235428;19;20612;-81
2022/08/22 20:14:16;;;;;;;;;;;;;;;22.68;36.88;99467.97;12209178;19;20002;-80
2022/08/22 20:18:50;;;;;;;3.83;2.00;;;;;;;22.68;37.58;99459.56;12230720;19;19922;-81
2022/08/22 20:23:09;;;;;;;6.78;2.03;;;;;;;22.66;37.21;99464.69;12208799;19;20022;-81
2022/08/22 20:27:16;;;;;;;7.07;2.78;;;;;;;22.69;36.96;99458.38;12232662;19;20384;-82
2022/08/22 20:31:24;;;;;;;3.70;2.30;;;;;;;22.67;37.37;99466.34;12224011;19;20017;-82
2022/08/22 20:35:41;;;;;;;6.28;2.08;;;;;;;22.63;37.52;99461.72;12203688;19;20016;-81
2022/08/22 20:40:37;;;;;;;4.97;2.00;;;;;;;22.61;37.59;99464.06;12229252;19;20007;-82
2022/08/22 20:45:07;;;;;;;7.35;3.70;;;;;;;22.53;37.35;99465.75;12220285;19;20007;-83
2022/08/22 20:49:20;;;;;;;5.75;2.70;;;;;;;22.55;37.54;99468.22;12241544;19;20006;-83
2022/08/22 20:53:21;;;;;;;4.35;2.28;;;;;;;22.50;37.46;99461.63;12218573;19;20014;-82
2022/08/22 20:57:23;;;;;;;3.45;1.80;;;;;;;22.48;37.77;99468.75;12241677;19;20022;-82
2022/08/22 21:01:26;;;;;;;5.70;1.70;;;;;;;22.51;37.54;99466.06;12244839;19;20006;-82
2022/08/22 21:05:37;;;;;;;6.80;2.10;;;;;;;22.51;37.86;99462.44;12223752;19;20010;-84
2022/08/22 21:14:20;;;;;;;4.70;2.00;;;;;;;22.58;38.04;99464.75;12222273;19;20084;-82
2022/08/22 21:18:30;;;;;;;3.47;1.98;;;;;;;22.57;38.32;99469.53;12240537;19;20011;-82
2022/08/22 21:22:33;;;;;;;4.30;2.28;;;;;;;22.62;38.28;99476.94;12243116;19;20015;-83
2022/08/22 21:26:44;;;;;;;3.08;1.67;;;;;;;22.72;38.40;99474.56;12218296;19;20013;-83
2022/08/22 21:30:45;;;;;;;3.75;1.85;;;;;;;22.70;38.26;99476.91;12238016;19;20015;-83
2022/08/22 21:34:48;;;;;;;3.77;2.03;;;;;;;22.76;38.12;99471.91;12212031;19;20014;-83
2022/08/22 21:38:54;;;;;;;8.85;2.10;;;;;;;22.81;37.96;99476.50;12230722;19;20260;-83
2022/08/22 21:43:03;;;;;;;3.30;2.15;;;;;;;22.89;37.96;99479.25;12235204;19;20482;-83
2022/08/22 21:47:25;;;;;;;5.05;2.30;;;;;;;22.88;37.82;99477.63;12217313;19;19998;-82
2022/08/22 21:51:42;;;;;;;3.42;1.95;;;;;;;22.87;38.29;99480.75;12238796;19;20003;-83
2022/08/22 21:55:48;;;;;;;2.70;1.90;;;;;;;22.86;38.44;99474.31;12193638;19;20014;-83
2022/08/22 21:59:52;;;;;;;3.55;1.88;;;;;;;22.82;38.32;99481.78;12230652;19;20066;-82
2022/08/22 22:04:00;;;;;;;8.18;2.28;;;;;;;22.74;38.57;99474.22;12228573;19;20030;-82
2022/08/22 22:08:03;;;;;;;4.60;2.17;;;;;;;22.72;38.96;99480.16;12207665;19;20463;-82
2022/08/22 22:12:04;;;;;;;5.72;2.45;;;;;;;22.70;39.01;99485.31;12230037;19;20473;-82
2022/08/22 22:16:07;;;;;;;4.40;2.20;;;;;;;22.73;38.66;99490.25;12231722;19;20039;-83
2022/08/22 22:20:12;;;;;;;8.52;2.22;;;;;;;22.72;38.91;99494.22;12214688;19;20003;-82
2022/08/22 22:24:14;;;;;;;3.67;2.05;;;;;;;22.82;38.39;99503.44;12236229;19;20007;-83
2022/08/22 22:28:43;;;;;;;5.03;2.50;;;;;;;22.84;38.54;99515.16;12235865;19;20007;-82
2022/08/22 22:32:46;;;;;;;4.65;1.90;;;;;;;22.81;38.90;99516.63;12204857;19;20087;-82
2022/08/22 22:36:48;;;;;;;4.68;2.10;;;;;;;22.74;39.07;99510.75;12225823;19;20482;-83
2022/08/22 22:40:51;;;;;;;6.82;1.98;;;;;;;22.70;38.97;99502.19;12207766;19;20010;-82
2022/08/22 22:44:52;;;;;;;;;;;;;;;22.68;38.92;99503.69;12228122;19;20361;-83
2022/08/22 22:48:56;;;;;;;7.78;2.13;;;;;;;22.68;38.96;99506.47;12265402;19;19911;-81
2022/08/22 22:52:58;;;;;;;4.38;1.92;;;;;;;22.64;39.22;99511.13;12256389;19;20010;-81
2022/08/22 22:56:59;;;;;;;3.83;2.20;;;;;;;22.61;38.92;99523.88;12246062;19;20405;-83
2022/08/22 23:01:17;;;;;;;3.67;2.10;;;;;;;22.64;38.95;99533.59;12234285;19;20010;-83
2022/08/22 23:05:19;;;;;;;6.68;2.17;;;;;;;22.65;39.17;99535.25;12209275;19;20037;-82
2022/08/22 23:09:22;;;;;;;;;;;;;;;22.57;38.76;99539.72;12229930;19;20031;-82
2022/08/22 23:13:40;;;;;;;4.68;2.15;;;;;;;22.49;39.13;99546.22;12209643;19;19906;-82
2022/08/22 23:17:44;;;;;;;3.63;2.00;;;;;;;22.33;39.63;99554.34;12228732;19;20034;-81
2022/08/22 23:21:46;;;;;;;4.85;2.10;;;;;;;22.14;40.34;99565.91;12229047;19;20082;-82
2022/08/22 23:25:51;;;;;;;3.97;1.95;;;;;;;21.95;40.48;99568.25;12212110;19;20022;-83